createdAt,value
2023-02-26T00:01:42.038Z,1.36
2023-02-26T00:05:07.248Z,1.34
2023-02-26T00:08:32.512Z,1.3
2023-02-26T00:11:57.791Z,1.26
2023-02-26T00:15:23.023Z,1.29
2023-02-26T00:18:48.277Z,1.28
2023-02-26T00:22:13.539Z,1.19
2023-02-26T00:25:38.821Z,1.09
2023-02-26T00:29:04.126Z,1.01
2023-02-26T00:32:31.287Z,0.95
2023-02-26T00:35:54.608Z,0.9
2023-02-26T00:39:19.872Z,0.82
2023-02-26T00:42:45.136Z,0.74
2023-02-26T00:46:10.514Z,0.75
2023-02-26T00:49:35.690Z,0.8
2023-02-26T00:53:00.957Z,0.75
2023-02-26T00:56:26.458Z,0.74
2023-02-26T00:59:51.504Z,0.77
2023-02-26T01:03:16.745Z,0.73
2023-02-26T01:06:41.993Z,0.72
2023-02-26T01:10:07.276Z,0.73
2023-02-26T01:13:32.537Z,0.76
2023-02-26T01:16:57.831Z,0.83
2023-02-26T01:20:23.101Z,0.83
2023-02-26T01:23:48.332Z,0.85
2023-02-26T01:27:13.598Z,0.92
2023-02-26T01:30:38.927Z,0.99
2023-02-26T01:34:04.157Z,1
2023-02-26T01:37:29.433Z,0.96
2023-02-26T01:40:54.679Z,0.99
2023-02-26T01:44:19.932Z,0.98
2023-02-26T01:47:45.229Z,0.95
2023-02-26T01:51:10.477Z,0.92
2023-02-26T01:54:35.753Z,0.96
2023-02-26T01:58:01.011Z,0.99
2023-02-26T02:01:26.245Z,0.99
2023-02-26T02:04:51.495Z,0.98
2023-02-26T02:08:16.762Z,0.95
2023-02-26T02:11:42.047Z,0.89
2023-02-26T02:15:07.286Z,0.89
2023-02-26T02:18:32.556Z,0.94
2023-02-26T02:21:57.812Z,0.9
2023-02-26T02:25:23.067Z,0.89
2023-02-26T02:28:48.361Z,0.89
2023-02-26T02:32:13.758Z,0.85
2023-02-26T02:35:38.854Z,0.81
2023-02-26T02:39:04.116Z,0.8
2023-02-26T02:42:29.396Z,0.81
2023-02-26T02:45:54.775Z,0.76
2023-02-26T02:49:19.939Z,0.73
2023-02-26T02:52:45.174Z,0.72
2023-02-26T02:56:10.438Z,0.72
2023-02-26T02:59:35.681Z,0.76
2023-02-26T03:03:01.065Z,0.76
2023-02-26T03:06:26.224Z,0.8
2023-02-26T03:09:51.492Z,0.84
2023-02-26T03:13:16.748Z,0.81
2023-02-26T03:16:42.048Z,0.73
2023-02-26T03:20:07.342Z,0.7
2023-02-26T03:23:32.568Z,0.69
2023-02-26T03:26:57.821Z,0.7
2023-02-26T03:30:23.091Z,0.71
2023-02-26T03:33:48.372Z,0.67
2023-02-26T03:37:13.699Z,0.66
2023-02-26T03:40:39.011Z,0.59
2023-02-26T03:44:04.279Z,0.49
2023-02-26T03:47:29.547Z,0.47
2023-02-26T03:50:54.852Z,0.49
2023-02-26T03:54:20.107Z,0.52
2023-02-26T03:57:45.373Z,0.52
2023-02-26T04:01:10.643Z,0.46
2023-02-26T04:04:36.050Z,0.44
2023-02-26T04:08:01.168Z,0.45
2023-02-26T04:11:26.583Z,0.41
2023-02-26T04:14:51.760Z,0.33
2023-02-26T04:18:17.037Z,0.27
2023-02-26T04:21:42.385Z,0.24
2023-02-26T04:25:07.696Z,0.24
2023-02-26T04:28:33.002Z,0.28
2023-02-26T04:31:58.365Z,0.31
2023-02-26T04:35:23.527Z,0.3
2023-02-26T04:38:48.774Z,0.26
2023-02-26T04:42:14.012Z,0.24
2023-02-26T04:45:39.307Z,0.24
2023-02-26T04:49:04.636Z,0.28
2023-02-26T04:52:29.873Z,0.35
2023-02-26T04:55:55.096Z,0.39
2023-02-26T04:59:20.297Z,0.37
2023-02-26T05:02:45.551Z,0.38
2023-02-26T05:06:10.707Z,0.39
2023-02-26T05:09:35.935Z,0.43
2023-02-26T05:13:01.182Z,0.43
2023-02-26T05:16:26.850Z,0.42
2023-02-26T05:19:51.662Z,0.37
2023-02-26T05:23:16.838Z,0.31
2023-02-26T05:26:42.061Z,0.26
2023-02-26T05:30:07.269Z,0.2
2023-02-26T05:33:32.474Z,0.21
2023-02-26T05:36:57.709Z,0.24
2023-02-26T05:40:22.877Z,0.27
2023-02-26T05:43:48.071Z,0.24
2023-02-26T05:47:13.303Z,0.21
2023-02-26T05:50:38.524Z,0.23
2023-02-26T05:54:03.724Z,0.22
2023-02-26T05:57:28.926Z,0.23
2023-02-26T06:00:54.128Z,0.16
2023-02-26T06:04:19.284Z,0.1
2023-02-26T06:07:44.494Z,0.09
2023-02-26T06:11:09.729Z,0.07
2023-02-26T06:14:34.916Z,0.05
2023-02-26T06:18:00.121Z,0.05
2023-02-26T06:21:25.321Z,0.09
2023-02-26T06:24:50.547Z,0.09
2023-02-26T06:28:15.778Z,0.09
2023-02-26T06:31:41.182Z,0.12
2023-02-26T06:35:06.311Z,0.16
2023-02-26T06:38:31.574Z,0.24
2023-02-26T06:41:56.821Z,0.33
2023-02-26T06:45:22.127Z,0.43
2023-02-26T06:48:47.367Z,0.42
2023-02-26T06:52:12.663Z,0.35
2023-02-26T06:55:37.958Z,0.44
2023-02-26T06:59:03.237Z,0.55
2023-02-26T07:02:28.622Z,0.56
2023-02-26T07:05:53.925Z,0.63
2023-02-26T07:09:19.262Z,0.75
2023-02-26T07:12:44.432Z,0.81
2023-02-26T07:16:09.642Z,0.79
2023-02-26T07:19:34.883Z,0.71
2023-02-26T07:23:00.119Z,0.69
2023-02-26T07:26:25.737Z,0.76
2023-02-26T07:29:50.508Z,0.88
2023-02-26T07:33:15.732Z,0.95
2023-02-26T07:36:40.992Z,1.02
2023-02-26T07:40:06.180Z,1.08
2023-02-26T07:43:31.872Z,1.09
2023-02-26T07:46:57.067Z,1.09
2023-02-26T07:50:22.286Z,1.1
2023-02-26T07:53:47.833Z,1.22
2023-02-26T07:57:13.074Z,1.39
2023-02-26T08:00:38.320Z,1.46
2023-02-26T08:04:03.539Z,1.52
2023-02-26T08:07:28.738Z,1.66
2023-02-26T08:10:53.993Z,1.77
2023-02-26T08:14:19.195Z,1.86
2023-02-26T08:17:44.403Z,1.87
2023-02-26T08:21:09.628Z,1.9
2023-02-26T08:24:34.888Z,1.95
2023-02-26T08:28:00.133Z,2.02
2023-02-26T08:31:25.504Z,1.98
2023-02-26T08:34:50.557Z,1.96
2023-02-26T08:38:15.765Z,1.89
2023-02-26T08:41:40.976Z,1.82
2023-02-26T08:45:06.236Z,1.81
2023-02-26T08:48:31.410Z,1.81
2023-02-26T08:51:56.617Z,1.95
2023-02-26T08:55:21.820Z,2.13
2023-02-26T08:58:47.029Z,2.07
2023-02-26T09:02:12.337Z,1.99
2023-02-26T09:05:37.434Z,2.03
2023-02-26T09:09:02.642Z,2.08
2023-02-26T09:12:27.892Z,2.05
2023-02-26T09:15:53.080Z,2.06
2023-02-26T09:19:18.311Z,2.16
2023-02-26T09:22:43.502Z,2.27
2023-02-26T09:26:08.705Z,2.34
2023-02-26T09:29:33.912Z,2.3
2023-02-26T09:32:59.136Z,2.27
2023-02-26T09:36:24.603Z,2.34
2023-02-26T09:39:49.589Z,2.49
2023-02-26T09:43:14.817Z,2.45
2023-02-26T09:46:40.027Z,2.3
2023-02-26T09:50:05.355Z,2.26
2023-02-26T09:53:30.637Z,2.27
2023-02-26T09:56:55.823Z,2.18
2023-02-26T10:00:21.049Z,2.16
2023-02-26T10:03:46.321Z,2.17
2023-02-26T10:07:11.503Z,2.23
2023-02-26T10:10:36.748Z,2.28
2023-02-26T10:14:01.959Z,2.35
2023-02-26T10:17:27.182Z,2.41
2023-02-26T10:20:52.432Z,2.45
2023-02-26T10:24:17.654Z,2.53
2023-02-26T10:27:42.904Z,2.52
2023-02-26T10:31:08.179Z,2.6
2023-02-26T10:34:33.297Z,2.72
2023-02-26T10:37:58.511Z,2.87
2023-02-26T10:41:23.896Z,3.02
2023-02-26T10:44:48.957Z,3.03
2023-02-26T10:48:14.136Z,3.06
2023-02-26T10:51:39.365Z,3.03
2023-02-26T10:55:04.578Z,3.08
2023-02-26T10:58:29.764Z,3.14
2023-02-26T11:01:55.064Z,3.26
2023-02-26T11:05:20.298Z,3.33
2023-02-26T11:08:45.576Z,3.3
2023-02-26T11:12:10.761Z,3.31
2023-02-26T11:15:36.059Z,3.37
2023-02-26T11:19:02.107Z,3.37
2023-02-26T11:22:27.890Z,3.45
2023-02-26T11:25:53.128Z,3.51
2023-02-26T11:29:18.329Z,3.61
2023-02-26T11:32:43.566Z,3.75
2023-02-26T11:36:08.791Z,3.93
2023-02-26T11:39:33.988Z,4.05
2023-02-26T11:42:59.202Z,4.1
2023-02-26T11:46:24.537Z,4.11
2023-02-26T11:49:49.698Z,4.18
2023-02-26T11:53:14.941Z,4.23
2023-02-26T11:56:40.110Z,4.17
2023-02-26T12:00:05.324Z,4.1
2023-02-26T12:03:30.592Z,4.04
2023-02-26T12:06:55.786Z,4.06
2023-02-26T12:10:21.019Z,4.07
2023-02-26T12:13:46.207Z,4.08
2023-02-26T12:17:11.422Z,4.11
2023-02-26T12:20:36.713Z,4.2
2023-02-26T12:24:01.921Z,4.24
2023-02-26T12:27:27.133Z,4.25
2023-02-26T12:30:52.441Z,4.27
2023-02-26T12:34:17.633Z,4.29
2023-02-26T12:37:42.822Z,4.41
2023-02-26T12:41:08.040Z,4.36
2023-02-26T12:44:33.287Z,4.35
2023-02-26T12:47:58.475Z,4.37
2023-02-26T12:51:23.957Z,4.19
2023-02-26T12:54:48.901Z,3.98
2023-02-26T12:58:14.082Z,3.85
2023-02-26T13:01:39.891Z,3.76
2023-02-26T13:05:04.459Z,3.69
2023-02-26T13:08:29.654Z,3.67
2023-02-26T13:11:54.858Z,3.56
2023-02-26T13:15:20.011Z,3.47
2023-02-26T13:18:45.199Z,3.46
2023-02-26T13:22:10.344Z,3.47
2023-02-26T13:25:35.528Z,3.53
2023-02-26T13:29:00.714Z,3.58
2023-02-26T13:32:26.080Z,3.49
2023-02-26T13:35:51.141Z,3.36
2023-02-26T13:39:16.277Z,3.26
2023-02-26T13:42:41.525Z,3.19
2023-02-26T13:46:06.686Z,3.13
2023-02-26T13:49:31.895Z,3.13
2023-02-26T13:52:57.106Z,3.13
2023-02-26T13:56:22.300Z,3.16
2023-02-26T13:59:47.511Z,3.13
2023-02-26T14:03:12.697Z,3.03
2023-02-26T14:06:37.884Z,2.94
2023-02-26T14:10:03.125Z,2.99
2023-02-26T14:13:28.300Z,3.02
2023-02-26T14:16:53.560Z,3.01
2023-02-26T14:20:18.686Z,3.11
2023-02-26T14:23:43.846Z,3.18
2023-02-26T14:27:09.045Z,3.16
2023-02-26T14:30:34.316Z,3.17
2023-02-26T15:03:35.074Z,0.7
2023-02-26T15:07:00.226Z,1.63
2023-02-26T15:10:25.434Z,1.86
2023-02-26T15:13:50.649Z,2.04
2023-02-26T15:17:15.848Z,2.15
2023-02-26T15:20:41.096Z,2.24
2023-02-26T15:24:06.279Z,2.27
2023-02-26T15:27:31.499Z,2.3
2023-02-26T15:30:56.758Z,2.26
2023-02-26T15:34:21.914Z,2.28
2023-02-26T15:37:47.154Z,2.42
2023-02-26T15:41:12.343Z,2.53
2023-02-26T15:44:42.704Z,2.51
2023-02-26T15:48:03.359Z,2.42
2023-02-26T15:51:29.057Z,2.24
2023-02-26T15:54:55.033Z,2.12
2023-02-26T15:58:20.326Z,2.12
2023-02-26T16:01:45.766Z,2.07
2023-02-26T16:05:11.003Z,1.97
2023-02-26T16:08:36.435Z,1.9
2023-02-26T16:12:01.926Z,1.86
2023-02-26T16:15:27.322Z,1.86
2023-02-26T16:18:52.726Z,1.88
2023-02-26T16:22:18.134Z,1.91
2023-02-26T16:25:43.556Z,1.89
2023-02-26T16:29:08.946Z,1.81
2023-02-26T16:32:34.562Z,1.73
2023-02-26T16:35:59.811Z,1.64
2023-02-26T16:39:25.191Z,1.56
2023-02-26T16:42:50.626Z,1.52
2023-02-26T16:46:16.037Z,1.5
2023-02-26T16:49:41.469Z,1.5
2023-02-26T16:53:06.852Z,1.49
2023-02-26T16:56:32.847Z,1.43
2023-02-26T16:59:58.271Z,1.39
2023-02-26T17:03:23.687Z,1.36
2023-02-26T17:06:49.092Z,1.38
2023-02-26T17:10:14.536Z,1.39
2023-02-26T17:13:40.127Z,1.39
2023-02-26T17:17:05.546Z,1.4
2023-02-26T17:20:31.035Z,1.43
2023-02-26T17:23:56.400Z,1.5
2023-02-26T17:27:21.868Z,1.49
2023-02-26T17:30:47.253Z,1.45
2023-02-26T17:34:12.600Z,1.43
2023-02-26T17:37:38.054Z,1.45
2023-02-26T17:41:03.440Z,1.49
2023-02-26T17:44:28.852Z,1.51
2023-02-26T17:47:54.286Z,1.5
2023-02-26T17:51:19.758Z,1.55
2023-02-26T17:54:45.175Z,1.6
2023-02-26T17:58:10.614Z,1.62
2023-02-26T18:01:36.183Z,1.67
2023-02-26T18:05:01.822Z,1.72
2023-02-26T18:08:27.074Z,1.7
2023-02-26T18:11:52.409Z,1.7
2023-02-26T18:15:17.666Z,1.67
2023-02-26T18:18:43.000Z,1.68
2023-02-26T18:22:08.362Z,1.7
2023-02-26T18:25:33.670Z,1.71
2023-02-26T18:28:59.095Z,1.7
2023-02-26T18:32:24.566Z,1.67
2023-02-26T18:35:49.824Z,1.65
2023-02-26T18:39:15.201Z,1.63
2023-02-26T18:42:40.642Z,1.62
2023-02-26T18:46:06.014Z,1.58
2023-02-26T18:49:31.310Z,1.53
2023-02-26T18:52:56.644Z,1.49
2023-02-26T18:56:21.960Z,1.49
2023-02-26T18:59:47.281Z,1.52
2023-02-26T19:03:12.592Z,1.57
2023-02-26T19:06:37.963Z,1.56
2023-02-26T19:10:03.271Z,1.55
2023-02-26T19:13:28.641Z,1.57
2023-02-26T19:16:53.954Z,1.57
2023-02-26T19:20:19.310Z,1.6
2023-02-26T19:23:44.615Z,1.65
2023-02-26T19:27:10.063Z,1.66
2023-02-26T19:30:35.656Z,1.67
2023-02-26T19:34:01.180Z,1.66
2023-02-26T19:37:26.673Z,1.67
2023-02-26T19:40:52.127Z,1.67
2023-02-26T19:44:17.625Z,1.65
2023-02-26T19:47:43.160Z,1.62
2023-02-26T19:51:08.670Z,1.62
2023-02-26T19:54:34.142Z,1.64
2023-02-26T19:57:59.558Z,1.64
2023-02-26T20:01:25.052Z,1.62
2023-02-26T20:04:50.472Z,1.62
2023-02-26T20:08:15.957Z,1.58
2023-02-26T20:11:41.472Z,1.58
2023-02-26T20:15:06.839Z,1.58
2023-02-26T20:18:32.305Z,1.6
2023-02-26T20:21:57.791Z,1.62
2023-02-26T20:25:23.326Z,1.66
2023-02-26T20:28:49.501Z,1.68
2023-02-26T20:32:15.127Z,1.7
2023-02-26T20:35:40.531Z,1.69
2023-02-26T20:39:06.065Z,1.69
2023-02-26T20:42:31.571Z,1.67
2023-02-26T20:45:57.029Z,1.67
2023-02-26T20:49:22.537Z,1.66
2023-02-26T20:52:48.067Z,1.66
2023-02-26T20:56:13.572Z,1.61
2023-02-26T20:59:39.057Z,1.54
2023-02-26T21:03:04.587Z,1.53
2023-02-26T21:06:30.070Z,1.54
2023-02-26T21:09:55.510Z,1.47
2023-02-26T21:13:21.012Z,1.45
2023-02-26T21:16:46.466Z,1.48
2023-02-26T21:20:11.533Z,1.55
2023-02-26T21:23:36.687Z,1.61
2023-02-26T21:27:01.821Z,1.6
2023-02-26T21:30:26.978Z,1.62
2023-02-26T21:33:52.143Z,1.66
2023-02-26T21:37:17.349Z,1.67
2023-02-26T21:40:42.466Z,1.68
2023-02-26T21:44:07.632Z,1.67
2023-02-26T21:47:32.808Z,1.69
2023-02-26T21:50:57.971Z,1.65
2023-02-26T21:54:23.156Z,1.61
2023-02-26T21:57:48.286Z,1.54
2023-02-26T22:01:13.476Z,1.51
2023-02-26T22:04:38.609Z,1.51
2023-02-26T22:08:03.751Z,1.5
2023-02-26T22:11:29.210Z,1.5
2023-02-26T22:14:54.078Z,1.47
2023-02-26T22:18:19.234Z,1.45
2023-02-26T22:21:44.406Z,1.37
2023-02-26T22:25:09.561Z,1.34
2023-02-26T22:28:34.752Z,1.35
2023-02-26T22:32:00.023Z,1.39
2023-02-26T22:35:25.069Z,1.42
2023-02-26T22:38:50.222Z,1.42
2023-02-26T22:42:15.420Z,1.39
2023-02-26T22:45:40.626Z,1.33
2023-02-26T22:49:05.737Z,1.28
2023-02-26T22:52:30.909Z,1.24
2023-02-26T22:55:56.056Z,1.19
2023-02-26T22:59:21.233Z,1.16
2023-02-26T23:02:46.429Z,1.08
2023-02-26T23:06:11.546Z,1.06
2023-02-26T23:09:36.713Z,1.01
2023-02-26T23:13:01.917Z,0.97
2023-02-26T23:16:28.688Z,0.96
2023-02-26T23:19:54.580Z,0.94
2023-02-26T23:23:19.728Z,0.92
2023-02-26T23:26:44.911Z,0.87
2023-02-26T23:30:10.084Z,0.82
2023-02-26T23:33:35.246Z,0.74
2023-02-26T23:37:00.423Z,0.72
2023-02-26T23:40:25.562Z,0.71
2023-02-26T23:43:50.730Z,0.7
2023-02-26T23:47:15.885Z,0.71
2023-02-26T23:50:41.036Z,0.72
2023-02-26T23:54:06.202Z,0.7
2023-02-26T23:57:31.346Z,0.68
